2 juli 2022

Tijd Code Weer Temp. Zicht Plafond Wind METAR/SPECI
9:30 p.m.
V
72 °F 6¼ mi+ - 290° 290° 9 kt METAR LFBG 021930Z AUTO 29009KT CAVOK 22/11 Q1019
9:00 p.m.
V
75 °F 6¼ mi+ - 270° 270° 11 kt METAR LFBG 021900Z AUTO 27011KT CAVOK 24/11 Q1019
8:30 p.m.
V
77 °F 6¼ mi+ - 280° 280° 10 kt METAR LFBG 021830Z AUTO 28010KT CAVOK 25/11 Q1019
8:00 p.m.
V
79 °F 6¼ mi+ - 280° 280° 13 kt METAR LFBG 021800Z AUTO 28013KT CAVOK 26/12 Q1019
7:30 p.m.
V
82 °F 6¼ mi+ - 240° 240° 6 kt METAR LFBG 021730Z AUTO 24006KT 210V270 CAVOK 28/10 Q1018
7:00 p.m.
V
82 °F 6¼ mi+ - 280° 280° 5 kt METAR LFBG 021700Z AUTO 28005KT 240V340 CAVOK 28/09 Q1018
6:30 p.m.
V
84 °F 6¼ mi+ - 270° 270° 5 kt METAR LFBG 021630Z AUTO 27005KT 220V340 CAVOK 29/09 Q1018
6:00 p.m.
V
84 °F 6¼ mi+ - Var Var 3 kt METAR LFBG 021600Z AUTO VRB03KT CAVOK 29/08 Q1018
5:30 p.m.
V
82 °F 6¼ mi+ - 260° 260° 6 kt METAR LFBG 021530Z AUTO 26006KT 210V320 CAVOK 28/08 Q1018
5:00 p.m.
V
82 °F 6¼ mi+ - 270° 270° 5 kt METAR LFBG 021500Z AUTO 27005KT 210V300 CAVOK 28/08 Q1018
4:30 p.m.
V
82 °F 6¼ mi+ - Var Var 3 kt METAR LFBG 021430Z AUTO VRB03KT CAVOK 28/09 Q1018
4:00 p.m.
V
81 °F 6¼ mi+ - Var 000° 0 kt METAR LFBG 021400Z AUTO 00000KT CAVOK 27/09 Q1019
3:30 p.m.
V
81 °F 6¼ mi+ - Var Var 4 kt METAR LFBG 021330Z AUTO VRB04KT CAVOK 27/09 Q1019
3:00 p.m.
V
81 °F 6¼ mi+ - 040° 040° 4 kt METAR LFBG 021300Z AUTO 04004KT 310V090 CAVOK 27/08 Q1019
2:30 p.m.
V
79 °F 6¼ mi+ - Var Var 3 kt METAR LFBG 021230Z AUTO VRB03KT CAVOK 26/09 Q1019
2:00 p.m.
V
79 °F 6¼ mi+ - 050° 050° 4 kt METAR LFBG 021200Z AUTO 05004KT 320V120 CAVOK 26/10 Q1019
1:30 p.m.
V
79 °F 6¼ mi+ - Var Var 2 kt METAR LFBG 021130Z AUTO VRB02KT CAVOK 26/10 Q1019
1:00 p.m.
V
75 °F 6¼ mi+ - Var Var 4 kt METAR LFBG 021100Z AUTO VRB04KT CAVOK 24/11 Q1019
12:30 p.m.
V
75 °F 6¼ mi+ - 020° 020° 5 kt METAR LFBG 021030Z AUTO 02005KT 310V110 CAVOK 24/10 Q1020
12:00 p.m.
V
73 °F 6¼ mi+ - 020° 020° 6 kt METAR LFBG 021000Z AUTO 02006KT 340V060 CAVOK 23/12 Q1020
11:30 a.m.
V
73 °F 6¼ mi+ - 030° 030° 4 kt METAR LFBG 020930Z AUTO 03004KT 340V130 CAVOK 23/11 Q1020 NOSIG
11:00 a.m.
V
72 °F 6¼ mi+ - 020° 020° 3 kt METAR LFBG 020900Z AUTO 02003KT 340V110 CAVOK 22/11 Q1020 NOSIG
10:30 a.m.
V
70 °F 6¼ mi+ - 100° 100° 3 kt METAR LFBG 020830Z AUTO 10003KT 050V140 CAVOK 21/11 Q1020 NOSIG
10:00 a.m.
V
68 °F 6¼ mi+ - 080° 080° 5 kt METAR LFBG 020800Z AUTO 08005KT 040V120 CAVOK 20/12 Q1020 NOSIG
9:30 a.m.
V
66 °F 6¼ mi+ - 090° 090° 4 kt METAR LFBG 020730Z AUTO 09004KT 020V130 CAVOK 19/11 Q1020
9:00 a.m.
V
64 °F 6¼ mi+ - Var Var 2 kt METAR LFBG 020700Z AUTO VRB02KT CAVOK 18/11 Q1021
8:30 a.m.
V
63 °F 6¼ mi+ - Var Var 2 kt METAR LFBG 020630Z AUTO VRB02KT CAVOK 17/10 Q1020
8:00 a.m.
V
61 °F 6¼ mi+ - Var Var 2 kt METAR LFBG 020600Z AUTO VRB02KT CAVOK 16/10 Q1020
7:30 a.m.
V
59 °F 6¼ mi+ - 020° 020° 1 kt METAR LFBG 020530Z AUTO 02001KT CAVOK 15/09 Q1020
7:00 a.m.
V
55 °F 6¼ mi+ - 360° 360° 3 kt METAR LFBG 020500Z AUTO 36003KT CAVOK 13/09 Q1020
6:30 a.m.
V
55 °F 6¼ mi+ - 010° 010° 2 kt METAR LFBG 020430Z AUTO 01002KT CAVOK 13/09 Q1020
6:00 a.m.
V
54 °F 6¼ mi+ - 030° 030° 2 kt METAR LFBG 020400Z AUTO 03002KT CAVOK 12/09 Q1020
5:30 a.m.
V
54 °F 6¼ mi+ - 080° 080° 2 kt METAR LFBG 020330Z AUTO 08002KT CAVOK 12/09 Q1020
5:00 a.m.
V
54 °F 6¼ mi+ - Var 000° 0 kt METAR LFBG 020300Z AUTO 00000KT CAVOK 12/09 Q1020
4:30 a.m.
V
54 °F 6¼ mi+ - Var 000° 0 kt METAR LFBG 020230Z AUTO 00000KT CAVOK 12/09 Q1021
4:00 a.m.
V
55 °F 6¼ mi+ - 080° 080° 3 kt METAR LFBG 020200Z AUTO 08003KT CAVOK 13/09 Q1021
3:30 a.m.
V
55 °F 6¼ mi+ - 060° 060° 3 kt METAR LFBG 020130Z AUTO 06003KT CAVOK 13/09 Q1021
3:00 a.m.
V
55 °F 6¼ mi+ - 110° 110° 2 kt METAR LFBG 020100Z AUTO 11002KT CAVOK 13/09 Q1021
2:30 a.m.
V
59 °F 6¼ mi+ - 060° 060° 4 kt METAR LFBG 020030Z AUTO 06004KT CAVOK 15/09 Q1021
2:00 a.m.
V
59 °F 6¼ mi+ - Var Var 2 kt METAR LFBG 020000Z AUTO VRB02KT CAVOK 15/09 Q1021
1:30 a.m.
V
61 °F 6¼ mi+ - 340° 340° 3 kt METAR LFBG 012330Z AUTO 34003KT CAVOK 16/09 Q1021
1:00 a.m.
V
61 °F 6¼ mi+ - Var Var 2 kt METAR LFBG 012300Z AUTO VRB02KT CAVOK 16/09 Q1022
12:30 a.m.
V
63 °F 6¼ mi+ - 360° 360° 5 kt METAR LFBG 012230Z AUTO 36005KT CAVOK 17/09 Q1021
12:00 a.m.
V
64 °F 6¼ mi+ - 360° 360° 6 kt METAR LFBG 012200Z AUTO 36006KT CAVOK 18/08 Q1021

1 juli 2022

Tijd Code Weer Temp. Zicht Plafond Wind METAR/SPECI
11:30 p.m.
V
64 °F 6¼ mi+ - 350° 350° 7 kt METAR LFBG 012130Z AUTO 35007KT CAVOK 18/09 Q1021
11:00 p.m.
V
64 °F 6¼ mi+ - 340° 340° 9 kt METAR LFBG 012100Z AUTO 34009KT CAVOK 18/10 Q1021
10:30 p.m.
V
68 °F 6¼ mi+ - 360° 360° 4 kt METAR LFBG 012030Z AUTO 36004KT CAVOK 20/10 Q1021
10:00 p.m.
V
68 °F 6¼ mi+ - 050° 050° 2 kt METAR LFBG 012000Z AUTO 05002KT CAVOK 20/09 Q1021
9:30 p.m.
V
70 °F 6¼ mi+ - Var 000° 0 kt METAR LFBG 011930Z AUTO 00000KT CAVOK 21/08 Q1021
9:00 p.m.
V
70 °F 6¼ mi+ - Var 000° 0 kt METAR LFBG 011900Z AUTO 00000KT CAVOK 21/08 Q1021
8:30 p.m.
V
72 °F 6¼ mi+ - 110° 110° 2 kt METAR LFBG 011830Z AUTO 11002KT CAVOK 22/09 Q1020
8:00 p.m.
V
72 °F 6¼ mi+ - 050° 050° 3 kt METAR LFBG 011800Z AUTO 05003KT CAVOK 22/08 Q1020
7:30 p.m.
V
72 °F 6¼ mi+ - 080° 080° 3 kt METAR LFBG 011730Z AUTO 08003KT 060V120 CAVOK 22/08 Q1021
7:00 p.m.
V
72 °F 6¼ mi+ - 050° 050° 6 kt METAR LFBG 011700Z AUTO 05006KT 020V080 CAVOK 22/09 Q1020
6:30 p.m.
V
73 °F 6¼ mi+ - Var Var 3 kt METAR LFBG 011630Z AUTO VRB03KT CAVOK 23/08 Q1021
6:00 p.m.
V
73 °F 6¼ mi+ - 260° 260° 5 kt METAR LFBG 011600Z AUTO 26005KT 230V290 CAVOK 23/08 Q1021
5:30 p.m.
V
73 °F 6¼ mi+ - Var Var 3 kt METAR LFBG 011530Z AUTO VRB03KT CAVOK 23/08 Q1021
5:00 p.m.
V
72 °F 6¼ mi+ - Var Var 3 kt METAR LFBG 011500Z AUTO VRB03KT CAVOK 22/08 Q1021 NOSIG
4:30 p.m.
V
72 °F 6¼ mi+ - 260° 260° 4 kt METAR LFBG 011430Z AUTO 26004KT 190V320 CAVOK 22/08 Q1021 NOSIG
4:00 p.m.
V
72 °F 6¼ mi+ - Var Var 2 kt METAR LFBG 011400Z AUTO VRB02KT CAVOK 22/09 Q1021 NOSIG
3:30 p.m.
V
72 °F 6¼ mi+ - Var Var 3 kt METAR LFBG 011330Z AUTO VRB03KT CAVOK 22/08 Q1021 NOSIG
3:00 p.m.
V
72 °F 6¼ mi+ - 180° 180° 5 kt METAR LFBG 011300Z AUTO 18005KT 100V230 CAVOK 22/08 Q1021 NOSIG
2:30 p.m.
V
73 °F 6¼ mi+ - 250° 250° 3 kt METAR LFBG 011230Z AUTO 25003KT 180V320 CAVOK 23/10 Q1021 NOSIG
2:00 p.m.
V
72 °F 6¼ mi+ - 180° 180° 4 kt METAR LFBG 011200Z AUTO 18004KT 140V260 CAVOK 22/09 Q1021 NOSIG
1:30 p.m.
V
68 °F 6¼ mi+ - Var Var 3 kt METAR LFBG 011130Z AUTO VRB03KT CAVOK 20/07 Q1021 NOSIG
1:00 p.m.
V
72 °F 6¼ mi+ - Var Var 3 kt METAR LFBG 011100Z AUTO VRB03KT CAVOK 22/09 Q1021 NOSIG
12:30 p.m.
V
70 °F 6¼ mi+ - Var Var 3 kt METAR LFBG 011030Z AUTO VRB03KT 9999 FEW038 21/08 Q1021 NOSIG
12:00 p.m.
V
68 °F 6¼ mi+ 4.300 ft 260° 260° 3 kt METAR LFBG 011000Z AUTO 26003KT 220V300 9999 SCT037 BKN043 BKN050 20/10 Q1021 NOSIG
11:30 a.m.
V
66 °F 6¼ mi+ - Var Var 3 kt METAR LFBG 010930Z AUTO VRB03KT 9999 FEW034 SCT047 19/11 Q1022 NOSIG
11:00 a.m.
V
66 °F 6¼ mi+ - Var Var 3 kt METAR LFBG 010900Z AUTO VRB03KT 9999 FEW036 19/11 Q1021 NOSIG
10:30 a.m.
V
66 °F 6¼ mi+ - Var Var 2 kt METAR LFBG 010830Z AUTO VRB02KT CAVOK 19/11 Q1021 NOSIG
10:00 a.m.
V
64 °F 6¼ mi+ - Var Var 2 kt METAR LFBG 010800Z AUTO VRB02KT CAVOK 18/11 Q1021 NOSIG
9:30 a.m.
V
63 °F 6¼ mi+ - Var Var 3 kt METAR LFBG 010730Z AUTO VRB03KT CAVOK 17/11 Q1021 NOSIG
9:00 a.m.
V
59 °F 6¼ mi+ - Var Var 2 kt METAR LFBG 010700Z AUTO VRB02KT CAVOK 15/12 Q1021 NOSIG
8:30 a.m.
V
57 °F 6¼ mi+ - Var Var 2 kt METAR LFBG 010630Z AUTO VRB02KT CAVOK 14/11 Q1021 NOSIG
8:00 a.m.
V
54 °F 6¼ mi+ - 090° 090° 2 kt METAR LFBG 010600Z AUTO 09002KT CAVOK 12/10 Q1021 NOSIG
7:30 a.m.
V
52 °F 6¼ mi+ - 090° 090° 3 kt METAR LFBG 010530Z AUTO 09003KT CAVOK 11/10 Q1021 NOSIG
7:00 a.m.
V
52 °F 6¼ mi+ - 080° 080° 3 kt METAR LFBG 010500Z AUTO 08003KT CAVOK 11/09 Q1021
6:30 a.m.
V
50 °F 6¼ mi+ - 100° 100° 3 kt METAR LFBG 010430Z AUTO 10003KT CAVOK 10/09 Q1021
6:00 a.m.
V
50 °F 6¼ mi+ - 090° 090° 1 kt METAR LFBG 010400Z AUTO 09001KT CAVOK 10/09 Q1021
5:30 a.m.
V
50 °F 6¼ mi+ - Var 000° 0 kt METAR LFBG 010330Z AUTO 00000KT CAVOK 10/09 Q1020
5:00 a.m.
V
50 °F 6¼ mi+ - Var 000° 0 kt METAR LFBG 010300Z AUTO 00000KT CAVOK 10/09 Q1020
4:30 a.m.
V
52 °F 6¼ mi+ - Var 000° 0 kt METAR LFBG 010230Z AUTO 00000KT CAVOK 11/09 Q1020
4:00 a.m.
V
52 °F 6¼ mi+ - Var 000° 0 kt METAR LFBG 010200Z AUTO 00000KT CAVOK 11/09 Q1020
3:30 a.m.
V
52 °F 6¼ mi+ - Var 000° 0 kt METAR LFBG 010130Z AUTO 00000KT CAVOK 11/09 Q1020
3:00 a.m.
V
54 °F 6¼ mi+ - 050° 050° 1 kt METAR LFBG 010100Z AUTO 05001KT CAVOK 12/09 Q1020
2:30 a.m.
V
54 °F 6¼ mi+ - Var 000° 0 kt METAR LFBG 010030Z AUTO 00000KT CAVOK 12/09 Q1020
2:00 a.m.
V
54 °F 6¼ mi+ - Var 000° 0 kt METAR LFBG 010000Z AUTO 00000KT CAVOK 12/09 Q1020
1:30 a.m.
V
54 °F 6¼ mi+ - Var 000° 0 kt METAR LFBG 302330Z AUTO 00000KT CAVOK 12/09 Q1020
1:00 a.m.
V
55 °F 6¼ mi+ - Var 000° 0 kt METAR LFBG 302300Z AUTO 00000KT CAVOK 13/09 Q1020
12:30 a.m.
V
57 °F 6¼ mi+ - 240° 240° 1 kt METAR LFBG 302230Z AUTO 24001KT CAVOK 14/09 Q1020 NOSIG
12:00 a.m.
V
57 °F 6¼ mi+ - 250° 250° 4 kt METAR LFBG 302200Z AUTO 25004KT CAVOK 14/10 Q1020 NOSIG

30 juni 2022

Tijd Code Weer Temp. Zicht Plafond Wind METAR/SPECI
11:30 p.m.
V
57 °F 6¼ mi+ - 270° 270° 3 kt METAR LFBG 302130Z AUTO 27003KT CAVOK 14/09 Q1020 NOSIG
11:00 p.m.
V
59 °F 6¼ mi+ - 240° 240° 4 kt METAR LFBG 302100Z AUTO 24004KT CAVOK 15/09 Q1020 NOSIG
10:30 p.m.
V
61 °F 6¼ mi+ - 240° 240° 5 kt METAR LFBG 302030Z AUTO 24005KT CAVOK 16/09 Q1019 NOSIG
10:00 p.m.
V
63 °F 6¼ mi+ - 260° 260° 6 kt METAR LFBG 302000Z AUTO 26006KT CAVOK 17/09 Q1019 NOSIG
9:30 p.m.
V
63 °F 6¼ mi+ - 280° 280° 8 kt METAR LFBG 301930Z AUTO 28008KT CAVOK 17/08 Q1018 NOSIG
9:00 p.m.
V
64 °F 6¼ mi+ - 270° 270° 9 kt METAR LFBG 301900Z AUTO 27009KT CAVOK 18/08 Q1018 NOSIG
8:30 p.m.
V
66 °F 6¼ mi+ - 270° 270° 10 kt METAR LFBG 301830Z AUTO 27010KT 9999 FEW043 19/09 Q1018 NOSIG
8:00 p.m.
V
68 °F 6¼ mi+ - 280° 280° 14 kt METAR LFBG 301800Z AUTO 28014KT 9999 FEW045 20/10 Q1018 NOSIG
7:30 p.m.
V
68 °F 6¼ mi+ - 280° 280° 13 kt METAR LFBG 301730Z AUTO 28013KT 9999 FEW044 20/09 Q1017 NOSIG
7:00 p.m.
V
70 °F 6¼ mi+ - 270° 270° 11 kt METAR LFBG 301700Z AUTO 27011KT 250V310 9999 FEW045 21/09 Q1017 NOSIG
6:30 p.m.
V
68 °F 6¼ mi+ - 270° 270° 12 kt METAR LFBG 301630Z AUTO 27012KT 240V300 9999 FEW048 20/09 Q1017 NOSIG
6:00 p.m.
V
70 °F 6¼ mi+ - 280° 280° 11 kt METAR LFBG 301600Z AUTO 28011KT 250V310 9999 SCT047 21/08 Q1017 NOSIG
5:30 p.m.
V
68 °F 6¼ mi+ - 270° 270° 12 kt METAR LFBG 301530Z AUTO 27012KT 240V300 9999 FEW048 20/09 Q1017 NOSIG
5:00 p.m.
V
70 °F 6¼ mi+ - 280° 280° 13 kt METAR LFBG 301500Z AUTO 28013KT 250V320 9999 FEW048 21/09 Q1017 NOSIG
Oudere gegevens

Installeer onze app

Gemakkelijke toegang tot al het luchtvaartweer op je mobiele telefoon en tablet.
Met veel functies die niet op de website beschikbaar zijn, zoals offline ondersteuning en een persoonlijke lijst van vliegvelden.

Met cookies volgen wij en derde partijen jouw internetgedrag binnen onze site. Als je verdergaat gaan we ervan uit dat je dit goedvindt. Meer info